Time;durP1;ratioP1;P1;durP2;ratioP2;P2;SDS_P1;SDS_P2;PMS_P1;PMS_P2;Temp;Humidity;BMP_temperature;BMP_pressure;BME280_temperature;BME280_humidity;BME280_pressure;Samples;Min_cycle;Max_cycle;Signal;HPM_P1;HPM_P2
2024/01/24 00:00:29;;;;;;;7.55;1.40;;;;;;;;;;5073955;28;20444;-79
2024/01/24 00:02:54;;;;;;;5.63;1.52;;;;;;;;;;5075097;28;20040;-80
2024/01/24 00:05:20;;;;;;;5.20;1.08;;;;;;;;;;5073129;28;20043;-79
2024/01/24 00:07:45;;;;;;;4.50;1.08;;;;;;;;;;5072386;28;20027;-79
2024/01/24 00:10:10;;;;;;;4.10;0.80;;;;;;;;;;5074257;28;20400;-79
2024/01/24 00:12:36;;;;;;;5.72;1.48;;;;;;;;;;5073631;28;20025;-78
2024/01/24 00:15:01;;;;;;;3.83;0.80;;;;;;;;;;5073259;28;20032;-79
2024/01/24 00:17:26;;;;;;;4.45;0.70;;;;;;;;;;5074935;28;20473;-79
2024/01/24 00:19:51;;;;;;;4.65;0.75;;;;;;;;;;5076121;28;20028;-79
2024/01/24 00:22:16;;;;;;;3.90;0.80;;;;;;;;;;5078935;28;20442;-79
2024/01/24 00:24:41;;;;;;;4.85;1.35;;;;;;;;;;5083825;28;20020;-80
2024/01/24 00:27:07;;;;;;;3.55;0.70;;;;;;;;;;5068447;28;20043;-79
2024/01/24 00:29:32;;;;;;;3.45;0.80;;;;;;;;;;5077358;28;20024;-79
2024/01/24 00:31:57;;;;;;;4.15;0.77;;;;;;;;;;5083907;28;20032;-79
2024/01/24 00:34:22;;;;;;;3.75;0.77;;;;;;;;;;5063037;28;20032;-79
2024/01/24 00:36:49;;;;;;;4.15;0.90;;;;;;;;;;5074979;28;20040;-79
2024/01/24 00:39:15;;;;;;;4.90;0.90;;;;;;;;;;5075748;28;20032;-79
2024/01/24 00:41:41;;;;;;;4.65;0.75;;;;;;;;;;5078155;28;20036;-79
2024/01/24 00:44:06;;;;;;;4.45;0.95;;;;;;;;;;5060380;28;20542;-79
2024/01/24 00:46:31;;;;;;;4.50;0.80;;;;;;;;;;5070842;28;20056;-79
2024/01/24 00:48:57;;;;;;;3.17;0.70;;;;;;;;;;5070555;28;20025;-79
2024/01/24 00:51:22;;;;;;;4.35;1.10;;;;;;;;;;5075722;28;20473;-79
2024/01/24 00:53:51;;;;;;;1.88;0.65;;;;;;;;;;5072311;28;20068;-79
2024/01/24 00:56:17;;;;;;;4.45;0.85;;;;;;;;;;5072716;28;20051;-79
2024/01/24 00:58:42;;;;;;;3.25;0.68;;;;;;;;;;5071888;28;20024;-80
2024/01/24 01:01:07;;;;;;;2.85;0.73;;;;;;;;;;5077965;28;20035;-79
2024/01/24 01:03:32;;;;;;;3.75;0.80;;;;;;;;;;5075553;28;20055;-79
2024/01/24 01:05:57;;;;;;;2.90;0.60;;;;;;;;;;5072901;28;20029;-79
2024/01/24 01:08:23;;;;;;;2.25;0.88;;;;;;;;;;5072987;28;20028;-79
2024/01/24 01:10:48;;;;;;;3.35;0.82;;;;;;;;;;5076519;28;20028;-79
2024/01/24 01:13:13;;;;;;;2.45;0.52;;;;;;;;;;5073267;28;20032;-79
2024/01/24 01:15:38;;;;;;;3.72;0.60;;;;;;;;;;5071312;28;20028;-79
2024/01/24 01:18:03;;;;;;;5.15;0.75;;;;;;;;;;5070595;28;20051;-79
2024/01/24 01:20:29;;;;;;;3.85;0.95;;;;;;;;;;5072975;28;20040;-79
2024/01/24 01:22:54;;;;;;;4.70;0.68;;;;;;;;;;5073200;28;20443;-80
2024/01/24 01:25:20;;;;;;;5.05;0.70;;;;;;;;;;5074568;28;20396;-79
2024/01/24 01:27:46;;;;;;;3.45;0.77;;;;;;;;;;5071599;28;20029;-79
2024/01/24 01:30:11;;;;;;;2.97;0.70;;;;;;;;;;5073117;28;20033;-79
2024/01/24 01:32:38;;;;;;;6.60;0.93;;;;;;;;;;5077392;28;20029;-79
2024/01/24 01:35:04;;;;;;;5.32;1.30;;;;;;;;;;5083568;28;20027;-79
2024/01/24 01:37:29;;;;;;;3.13;0.88;;;;;;;;;;5072994;28;20107;-79
2024/01/24 01:39:54;;;;;;;4.40;0.65;;;;;;;;;;5072821;28;20040;-78
2024/01/24 01:42:19;;;;;;;2.20;0.55;;;;;;;;;;5073321;28;20396;-78
2024/01/24 01:44:48;;;;;;;4.25;0.73;;;;;;;;;;5069592;28;20033;-78
2024/01/24 01:47:15;;;;;;;5.03;0.80;;;;;;;;;;5071448;28;20028;-78
2024/01/24 01:49:42;;;;;;;4.65;0.82;;;;;;;;;;5070828;28;20018;-78
2024/01/24 01:52:08;;;;;;;2.50;0.50;;;;;;;;;;5078950;28;20444;-79
2024/01/24 01:54:33;;;;;;;5.82;1.10;;;;;;;;;;5070779;28;20032;-79
2024/01/24 01:56:58;;;;;;;3.53;0.75;;;;;;;;;;5069811;28;20059;-79
2024/01/24 01:59:24;;;;;;;4.93;0.90;;;;;;;;;;5072552;28;20043;-79
2024/01/24 02:01:51;;;;;;;4.00;0.70;;;;;;;;;;5078951;28;20044;-79
2024/01/24 02:04:16;;;;;;;3.55;1.30;;;;;;;;;;5075598;28;20032;-80
2024/01/24 02:06:41;;;;;;;7.32;1.30;;;;;;;;;;5075420;28;20042;-80
2024/01/24 02:09:10;;;;;;;3.80;0.63;;;;;;;;;;5072912;28;20519;-80
2024/01/24 02:11:35;;;;;;;5.53;1.20;;;;;;;;;;5077729;28;20028;-80
2024/01/24 02:14:00;;;;;;;3.67;0.63;;;;;;;;;;5073067;28;20047;-80
2024/01/24 02:16:26;;;;;;;4.28;0.77;;;;;;;;;;5074179;28;20115;-80
2024/01/24 02:18:51;;;;;;;6.55;1.30;;;;;;;;;;5072511;28;20037;-80
2024/01/24 02:21:16;;;;;;;4.00;0.77;;;;;;;;;;5079351;28;20021;-80
2024/01/24 02:23:42;;;;;;;2.88;0.70;;;;;;;;;;5072169;28;20029;-79
2024/01/24 02:26:08;;;;;;;3.75;0.75;;;;;;;;;;5076769;28;20032;-80
2024/01/24 02:28:34;;;;;;;3.35;0.75;;;;;;;;;;5082363;28;20032;-80
2024/01/24 02:30:59;;;;;;;2.13;0.55;;;;;;;;;;5083841;28;20028;-80
2024/01/24 02:33:24;;;;;;;3.28;0.77;;;;;;;;;;5083334;28;20028;-80
2024/01/24 02:35:49;;;;;;;3.60;0.93;;;;;;;;;;5075189;28;20032;-80
2024/01/24 02:38:14;;;;;;;4.28;0.65;;;;;;;;;;5074918;28;20471;-80
2024/01/24 02:40:40;;;;;;;5.40;0.75;;;;;;;;;;5078567;28;20029;-80
2024/01/24 02:43:05;;;;;;;2.92;0.95;;;;;;;;;;5081827;28;20036;-79
2024/01/24 02:45:30;;;;;;;2.70;0.70;;;;;;;;;;5075401;28;20040;-80
2024/01/24 02:47:55;;;;;;;4.03;1.00;;;;;;;;;;5073626;28;20029;-79
2024/01/24 02:50:20;;;;;;;2.95;0.63;;;;;;;;;;5082860;28;20707;-79
2024/01/24 02:52:45;;;;;;;5.47;1.10;;;;;;;;;;5075278;28;20036;-80
2024/01/24 02:55:14;;;;;;;2.55;0.55;;;;;;;;;;5081042;28;20060;-79
2024/01/24 02:57:39;;;;;;;2.92;0.73;;;;;;;;;;5075245;28;20028;-79
2024/01/24 03:00:07;;;;;;;3.05;0.77;;;;;;;;;;5080133;28;20029;-80
2024/01/24 03:02:32;;;;;;;3.67;0.73;;;;;;;;;;5083400;28;20035;-80
2024/01/24 03:04:57;;;;;;;2.13;0.45;;;;;;;;;;5074407;28;20036;-79
2024/01/24 03:07:22;;;;;;;4.72;1.35;;;;;;;;;;5074095;28;20032;-80
2024/01/24 03:09:48;;;;;;;3.80;0.70;;;;;;;;;;5072931;28;20024;-80
2024/01/24 03:12:13;;;;;;;2.92;0.70;;;;;;;;;;5081781;28;20055;-80
2024/01/24 03:14:38;;;;;;;5.13;1.00;;;;;;;;;;5073340;28;20431;-79
2024/01/24 03:17:03;;;;;;;2.97;0.90;;;;;;;;;;5074418;28;20063;-79
2024/01/24 03:19:28;;;;;;;3.95;0.60;;;;;;;;;;5073966;28;20076;-79
2024/01/24 03:21:54;;;;;;;4.85;0.60;;;;;;;;;;5083233;28;20050;-80
2024/01/24 03:24:19;;;;;;;4.03;1.10;;;;;;;;;;5073902;28;20039;-79
2024/01/24 03:26:44;;;;;;;5.13;1.08;;;;;;;;;;5075784;28;20039;-80
2024/01/24 03:29:09;;;;;;;3.13;1.30;;;;;;;;;;5075548;28;20036;-80
2024/01/24 03:31:34;;;;;;;4.85;0.82;;;;;;;;;;5086673;28;20055;-79
2024/01/24 03:33:59;;;;;;;2.95;0.90;;;;;;;;;;5075844;28;20040;-80
2024/01/24 03:36:25;;;;;;;3.28;0.70;;;;;;;;;;5082229;28;20027;-79
2024/01/24 03:38:50;;;;;;;4.75;0.90;;;;;;;;;;5076117;28;20051;-79
2024/01/24 03:41:15;;;;;;;3.65;0.60;;;;;;;;;;5083916;28;20028;-79
2024/01/24 03:43:40;;;;;;;2.88;0.80;;;;;;;;;;5074713;28;20119;-79
2024/01/24 03:46:06;;;;;;;4.05;0.63;;;;;;;;;;5073670;28;20036;-79
2024/01/24 03:48:31;;;;;;;2.75;0.70;;;;;;;;;;5073337;28;20035;-79
2024/01/24 03:50:56;;;;;;;6.63;1.02;;;;;;;;;;5081280;28;20111;-79
2024/01/24 03:53:21;;;;;;;2.72;0.88;;;;;;;;;;5079752;28;20055;-79
2024/01/24 03:55:46;;;;;;;3.80;0.75;;;;;;;;;;5075223;28;20025;-78
2024/01/24 03:58:12;;;;;;;3.47;0.70;;;;;;;;;;5075546;28;20028;-79
2024/01/24 04:00:37;;;;;;;2.20;0.50;;;;;;;;;;5075689;28;20127;-79
2024/01/24 04:03:02;;;;;;;3.50;0.93;;;;;;;;;;5080412;28;20036;-80
2024/01/24 04:05:27;;;;;;;3.53;0.70;;;;;;;;;;5073271;28;20031;-79
2024/01/24 04:07:53;;;;;;;2.95;0.70;;;;;;;;;;5072952;28;20445;-79
2024/01/24 04:10:18;;;;;;;5.97;0.88;;;;;;;;;;5078648;28;20103;-80
2024/01/24 04:12:43;;;;;;;2.05;0.47;;;;;;;;;;5079670;28;20115;-80
2024/01/24 04:15:09;;;;;;;4.00;0.55;;;;;;;;;;5070705;28;20043;-79
2024/01/24 04:17:34;;;;;;;2.53;0.60;;;;;;;;;;5070976;28;20500;-79
2024/01/24 04:19:59;;;;;;;2.58;0.43;;;;;;;;;;5073206;28;20025;-79
2024/01/24 04:22:24;;;;;;;2.00;0.50;;;;;;;;;;5082468;28;20028;-78
2024/01/24 04:24:49;;;;;;;1.27;0.38;;;;;;;;;;5075234;28;20036;-81
2024/01/24 04:27:14;;;;;;;2.38;0.50;;;;;;;;;;5076587;28;20108;-81
2024/01/24 04:29:41;;;;;;;3.10;0.60;;;;;;;;;;5074205;28;20029;-81
2024/01/24 04:32:07;;;;;;;1.38;0.35;;;;;;;;;;5080146;28;20029;-82
2024/01/24 04:34:32;;;;;;;2.92;0.70;;;;;;;;;;5085017;28;20115;-81
2024/01/24 04:36:57;;;;;;;2.22;0.43;;;;;;;;;;5080297;28;20040;-82
2024/01/24 04:39:22;;;;;;;1.75;0.60;;;;;;;;;;5081938;28;20071;-81
2024/01/24 04:41:47;;;;;;;2.53;0.52;;;;;;;;;;5078893;28;20552;-82
2024/01/24 04:44:16;;;;;;;1.48;0.45;;;;;;;;;;5078990;28;20028;-81
2024/01/24 04:46:41;;;;;;;3.20;1.00;;;;;;;;;;5075726;28;20570;-81
2024/01/24 04:49:07;;;;;;;4.97;0.70;;;;;;;;;;5081108;28;20035;-81
2024/01/24 04:51:33;;;;;;;1.42;0.60;;;;;;;;;;5077087;28;20152;-81
2024/01/24 04:53:58;;;;;;;1.55;0.32;;;;;;;;;;5080441;28;20072;-81
2024/01/24 04:56:23;;;;;;;2.13;0.37;;;;;;;;;;5073206;28;20028;-81
2024/01/24 04:58:48;;;;;;;2.15;0.60;;;;;;;;;;5080298;28;20274;-81
2024/01/24 05:01:13;;;;;;;2.20;0.45;;;;;;;;;;5079319;28;20033;-81
2024/01/24 05:03:39;;;;;;;2.08;0.40;;;;;;;;;;5082936;28;20113;-81
2024/01/24 05:06:04;;;;;;;0.85;0.20;;;;;;;;;;5085893;28;20028;-81
2024/01/24 05:08:29;;;;;;;1.08;0.35;;;;;;;;;;5077116;28;20030;-81
2024/01/24 05:10:55;;;;;;;1.20;0.25;;;;;;;;;;5078511;28;20086;-81
2024/01/24 05:13:20;;;;;;;2.10;0.30;;;;;;;;;;5078134;28;20426;-81
2024/01/24 05:15:45;;;;;;;1.73;0.38;;;;;;;;;;5076399;28;20028;-81
2024/01/24 05:18:10;;;;;;;1.75;0.32;;;;;;;;;;5081704;28;20055;-81
2024/01/24 05:20:37;;;;;;;0.93;0.20;;;;;;;;;;5081280;28;20077;-81
2024/01/24 05:23:03;;;;;;;3.30;0.57;;;;;;;;;;5071062;28;20036;-81
2024/01/24 05:25:29;;;;;;;2.08;0.50;;;;;;;;;;5079837;28;20032;-81
2024/01/24 05:27:54;;;;;;;1.98;0.40;;;;;;;;;;5076272;28;20558;-81
2024/01/24 05:30:19;;;;;;;2.53;0.40;;;;;;;;;;5084063;28;20039;-81
2024/01/24 05:32:45;;;;;;;3.25;1.00;;;;;;;;;;5079387;28;20032;-81
2024/01/24 05:35:10;;;;;;;3.45;0.50;;;;;;;;;;5080157;28;20064;-81
2024/01/24 05:37:35;;;;;;;0.82;0.32;;;;;;;;;;5076750;28;20158;-81
2024/01/24 05:40:00;;;;;;;1.85;0.38;;;;;;;;;;5084864;28;20089;-82
2024/01/24 05:42:25;;;;;;;1.73;0.30;;;;;;;;;;5078155;28;20105;-81
2024/01/24 05:44:51;;;;;;;3.92;0.77;;;;;;;;;;5076019;28;20040;-81
2024/01/24 05:47:16;;;;;;;1.73;0.40;;;;;;;;;;5075402;28;20103;-81
2024/01/24 05:49:41;;;;;;;0.85;0.30;;;;;;;;;;5080423;28;20907;-81
2024/01/24 05:52:06;;;;;;;3.47;0.60;;;;;;;;;;5080460;28;20043;-82
2024/01/24 05:54:31;;;;;;;1.50;0.43;;;;;;;;;;5080764;28;20032;-82
2024/01/24 05:56:57;;;;;;;1.83;0.47;;;;;;;;;;5080550;28;20028;-80
2024/01/24 05:59:22;;;;;;;1.55;0.32;;;;;;;;;;5084923;28;20283;-80
2024/01/24 06:01:47;;;;;;;1.85;0.40;;;;;;;;;;5066048;28;20054;-80
2024/01/24 06:04:13;;;;;;;5.97;3.35;;;;;;;;;;5081862;28;20059;-80
2024/01/24 06:06:38;;;;;;;1.75;0.47;;;;;;;;;;5079904;28;20035;-79
2024/01/24 06:09:03;;;;;;;1.83;0.43;;;;;;;;;;5080156;28;20480;-79
2024/01/24 06:11:28;;;;;;;3.78;0.65;;;;;;;;;;5074702;28;20108;-80
2024/01/24 06:13:53;;;;;;;1.88;0.30;;;;;;;;;;5086299;28;20078;-79
2024/01/24 06:16:19;;;;;;;1.65;0.43;;;;;;;;;;5075564;28;20444;-79
2024/01/24 06:18:44;;;;;;;1.98;0.35;;;;;;;;;;5078914;28;20028;-80
2024/01/24 06:21:09;;;;;;;1.42;0.40;;;;;;;;;;5073769;28;20031;-79
2024/01/24 06:23:34;;;;;;;1.60;0.30;;;;;;;;;;5073597;28;20041;-79
2024/01/24 06:25:59;;;;;;;1.73;0.30;;;;;;;;;;5074413;28;20321;-80
2024/01/24 06:28:25;;;;;;;2.10;0.47;;;;;;;;;;5085817;28;20024;-79
2024/01/24 06:30:51;;;;;;;2.25;0.40;;;;;;;;;;5074904;28;20507;-79
2024/01/24 06:33:16;;;;;;;0.68;0.30;;;;;;;;;;5080056;28;20024;-79
2024/01/24 06:35:41;;;;;;;2.55;0.47;;;;;;;;;;5081600;28;20032;-80
2024/01/24 06:38:07;;;;;;;3.45;0.50;;;;;;;;;;5075318;28;20121;-79
2024/01/24 06:40:32;;;;;;;1.83;0.32;;;;;;;;;;5078896;28;20040;-79
2024/01/24 06:42:57;;;;;;;3.50;0.60;;;;;;;;;;5082092;28;20046;-79
2024/01/24 06:45:22;;;;;;;1.23;0.30;;;;;;;;;;5081877;28;20032;-79
2024/01/24 06:47:47;;;;;;;2.00;0.40;;;;;;;;;;5075905;28;20110;-79
2024/01/24 06:50:13;;;;;;;2.55;0.47;;;;;;;;;;5080547;28;20075;-79
2024/01/24 06:52:39;;;;;;;2.65;0.50;;;;;;;;;;5072818;28;20028;-80
2024/01/24 06:55:05;;;;;;;1.10;0.40;;;;;;;;;;5083251;28;20417;-80
2024/01/24 06:57:30;;;;;;;2.05;0.47;;;;;;;;;;5076034;28;20043;-80
2024/01/24 06:59:55;;;;;;;1.95;0.47;;;;;;;;;;5079620;28;20039;-79
2024/01/24 07:02:20;;;;;;;1.60;0.38;;;;;;;;;;5079650;28;20021;-79
2024/01/24 07:04:45;;;;;;;1.50;0.30;;;;;;;;;;5076559;28;20094;-80
2024/01/24 07:07:10;;;;;;;2.65;0.50;;;;;;;;;;5072056;28;20028;-80
2024/01/24 07:09:36;;;;;;;2.58;0.50;;;;;;;;;;5077102;28;20103;-80
2024/01/24 07:12:02;;;;;;;1.70;0.40;;;;;;;;;;5073330;28;20572;-80
2024/01/24 07:14:27;;;;;;;3.65;0.40;;;;;;;;;;5078516;28;20077;-80
2024/01/24 07:16:53;;;;;;;1.95;0.57;;;;;;;;;;5080017;28;20412;-79
2024/01/24 07:19:18;;;;;;;1.60;0.47;;;;;;;;;;5081302;28;20047;-80
2024/01/24 07:21:43;;;;;;;1.37;0.40;;;;;;;;;;5074187;28;20039;-79
2024/01/24 07:24:08;;;;;;;1.63;0.40;;;;;;;;;;5073242;28;20345;-79
2024/01/24 07:26:34;;;;;;;1.77;0.10;;;;;;;;;;5073156;28;20021;-79
2024/01/24 07:29:00;;;;;;;7.60;0.80;;;;;;;;;;5081538;28;20278;-80
2024/01/24 07:31:25;;;;;;;1.48;0.40;;;;;;;;;;5078289;28;20031;-80
2024/01/24 07:33:50;;;;;;;0.88;0.22;;;;;;;;;;5073960;28;20098;-80
2024/01/24 07:36:15;;;;;;;1.87;0.30;;;;;;;;;;5076555;28;20436;-80
2024/01/24 07:38:40;;;;;;;3.38;0.82;;;;;;;;;;5076847;28;20290;-80
2024/01/24 07:41:07;;;;;;;1.33;0.30;;;;;;;;;;5075590;28;20025;-80
2024/01/24 07:43:33;;;;;;;2.10;0.40;;;;;;;;;;5076509;28;20412;-79
2024/01/24 07:45:58;;;;;;;1.17;0.30;;;;;;;;;;5072525;28;20041;-80
2024/01/24 07:48:23;;;;;;;2.60;0.73;;;;;;;;;;5074647;28;20020;-79
2024/01/24 07:50:49;;;;;;;1.92;0.38;;;;;;;;;;5075492;28;20216;-80
2024/01/24 07:53:14;;;;;;;1.17;0.28;;;;;;;;;;5077028;28;20040;-79
2024/01/24 07:55:39;;;;;;;1.48;0.40;;;;;;;;;;5073095;28;20042;-80
2024/01/24 07:58:04;;;;;;;1.55;0.20;;;;;;;;;;5078189;28;20481;-79
2024/01/24 08:00:30;;;;;;;1.77;0.30;;;;;;;;;;5079762;28;20043;-80
2024/01/24 08:02:57;;;;;;;3.42;0.43;;;;;;;;;;5081516;28;20063;-80
2024/01/24 08:05:23;;;;;;;2.38;0.40;;;;;;;;;;5081226;28;20401;-78
2024/01/24 08:07:49;;;;;;;1.42;0.40;;;;;;;;;;5073097;28;20024;-76
2024/01/24 08:10:15;;;;;;;2.95;0.70;;;;;;;;;;5073197;28;20055;-76
2024/01/24 08:12:40;;;;;;;2.00;0.40;;;;;;;;;;5070436;28;20034;-76
2024/01/24 08:15:06;;;;;;;4.15;0.60;;;;;;;;;;5069962;28;20028;-76
2024/01/24 08:17:32;;;;;;;5.43;0.70;;;;;;;;;;5072896;28;20452;-76
2024/01/24 08:19:58;;;;;;;3.15;0.40;;;;;;;;;;5069784;28;20074;-76
2024/01/24 08:22:23;;;;;;;1.45;0.40;;;;;;;;;;5077383;28;20040;-76
2024/01/24 08:24:48;;;;;;;1.48;0.32;;;;;;;;;;5069879;28;20029;-76
2024/01/24 08:27:13;;;;;;;1.63;0.43;;;;;;;;;;5069940;28;20051;-76
2024/01/24 08:29:38;;;;;;;1.33;0.32;;;;;;;;;;5078820;28;20488;-76
2024/01/24 08:32:04;;;;;;;2.00;0.25;;;;;;;;;;5087769;28;20150;-77
2024/01/24 08:34:29;;;;;;;2.05;0.47;;;;;;;;;;5073488;28;20041;-77
2024/01/24 08:36:55;;;;;;;1.52;0.40;;;;;;;;;;5070905;28;20024;-77
2024/01/24 08:39:20;;;;;;;0.57;0.20;;;;;;;;;;5074229;28;20489;-77
2024/01/24 08:41:46;;;;;;;1.10;0.30;;;;;;;;;;5070099;28;20133;-76
2024/01/24 08:44:11;;;;;;;0.93;0.25;;;;;;;;;;5073279;28;20446;-77
2024/01/24 08:46:36;;;;;;;1.23;0.30;;;;;;;;;;5077033;28;20052;-77
2024/01/24 08:49:02;;;;;;;5.05;0.40;;;;;;;;;;5073897;28;20270;-77
2024/01/24 08:51:31;;;;;;;0.70;0.20;;;;;;;;;;5070722;28;20029;-77
2024/01/24 08:53:56;;;;;;;1.02;0.30;;;;;;;;;;5073881;28;20558;-77
2024/01/24 08:56:21;;;;;;;1.92;0.40;;;;;;;;;;5080772;28;20028;-77
2024/01/24 08:58:47;;;;;;;0.77;0.30;;;;;;;;;;5079832;28;20040;-77
2024/01/24 09:01:12;;;;;;;2.70;0.40;;;;;;;;;;5070845;28;20345;-77
2024/01/24 09:03:37;;;;;;;0.67;0.20;;;;;;;;;;5075445;28;20034;-77
2024/01/24 09:06:02;;;;;;;0.77;0.40;;;;;;;;;;5072372;28;20270;-78
2024/01/24 09:08:27;;;;;;;0.73;0.30;;;;;;;;;;5073303;28;20028;-77
2024/01/24 09:10:53;;;;;;;1.05;0.20;;;;;;;;;;5077201;28;20086;-78
2024/01/24 09:13:21;;;;;;;0.73;0.10;;;;;;;;;;5085573;28;20081;-77
2024/01/24 09:15:46;;;;;;;1.08;0.40;;;;;;;;;;5081814;28;20058;-77
2024/01/24 09:18:11;;;;;;;1.60;0.30;;;;;;;;;;5078142;28;20032;-77
2024/01/24 09:20:36;;;;;;;2.20;0.40;;;;;;;;;;5084368;28;20020;-78
2024/01/24 09:23:01;;;;;;;1.50;0.40;;;;;;;;;;5074373;28;20089;-77
2024/01/24 09:25:27;;;;;;;0.65;0.30;;;;;;;;;;5083574;28;20258;-77
2024/01/24 09:27:53;;;;;;;1.27;0.17;;;;;;;;;;5082662;28;20500;-78
2024/01/24 09:30:20;;;;;;;1.02;0.30;;;;;;;;;;5082860;28;20056;-77
2024/01/24 09:32:45;;;;;;;1.65;0.40;;;;;;;;;;5081903;28;20029;-77
2024/01/24 09:35:10;;;;;;;1.13;0.20;;;;;;;;;;5074678;28;20033;-77
2024/01/24 09:37:35;;;;;;;2.95;0.40;;;;;;;;;;5074593;28;20348;-77
2024/01/24 09:40:00;;;;;;;1.58;0.30;;;;;;;;;;5080966;28;20515;-77
2024/01/24 09:42:26;;;;;;;4.05;0.60;;;;;;;;;;5079350;28;20052;-76
2024/01/24 09:44:51;;;;;;;2.60;0.75;;;;;;;;;;5077585;28;20040;-80
2024/01/24 09:47:19;;;;;;;10.68;1.60;;;;;;;;;;5081717;28;20028;-80
2024/01/24 09:49:45;;;;;;;10.40;1.30;;;;;;;;;;5083967;28;20515;-80
2024/01/24 09:52:12;;;;;;;7.68;1.33;;;;;;;;;;5079015;28;20038;-79
2024/01/24 09:54:38;;;;;;;10.52;1.88;;;;;;;;;;5074865;28;20097;-77
2024/01/24 09:57:03;;;;;;;8.48;1.38;;;;;;;;;;5073070;28;20025;-77
2024/01/24 09:59:28;;;;;;;9.10;1.80;;;;;;;;;;5076157;28;20107;-77
2024/01/24 10:01:54;;;;;;;11.60;2.03;;;;;;;;;;5076347;28;20073;-77
2024/01/24 10:04:19;;;;;;;4.75;1.25;;;;;;;;;;5077236;28;20431;-77
2024/01/24 10:06:45;;;;;;;8.98;1.63;;;;;;;;;;5080147;28;20043;-77
2024/01/24 10:09:10;;;;;;;10.18;1.83;;;;;;;;;;5084109;28;20086;-76
2024/01/24 10:11:35;;;;;;;10.32;1.73;;;;;;;;;;5078162;28;20031;-76
2024/01/24 10:14:00;;;;;;;8.93;2.00;;;;;;;;;;5081202;28;20032;-76
2024/01/24 10:16:26;;;;;;;8.10;1.75;;;;;;;;;;5080229;28;20024;-76
2024/01/24 10:18:53;;;;;;;13.85;2.17;;;;;;;;;;5080489;28;20034;-76
2024/01/24 10:21:18;;;;;;;8.57;2.08;;;;;;;;;;5070348;28;20720;-76
2024/01/24 10:23:43;;;;;;;7.60;1.33;;;;;;;;;;5084763;28;20035;-75
2024/01/24 10:26:08;;;;;;;6.40;1.42;;;;;;;;;;5070872;28;20094;-75
2024/01/24 10:28:34;;;;;;;8.65;2.05;;;;;;;;;;5075711;28;20469;-75
2024/01/24 10:31:01;;;;;;;5.32;1.02;;;;;;;;;;5072109;28;20033;-76
2024/01/24 10:33:26;;;;;;;6.20;1.13;;;;;;;;;;5076979;28;20485;-75
2024/01/24 10:35:51;;;;;;;7.50;1.42;;;;;;;;;;5071346;28;20035;-76
2024/01/24 10:38:20;;;;;;;5.10;1.00;;;;;;;;;;5080559;28;20016;-75
2024/01/24 10:40:45;;;;;;;5.50;1.02;;;;;;;;;;5075203;28;20085;-77
2024/01/24 10:43:14;;;;;;;6.82;1.25;;;;;;;;;;5077122;28;20450;-76
2024/01/24 10:45:46;;;;;;;7.22;1.55;;;;;;;;;;5073654;28;20601;-76
2024/01/24 10:48:12;;;;;;;5.97;1.23;;;;;;;;;;5082035;28;20056;-76
2024/01/24 10:50:37;;;;;;;8.13;1.58;;;;;;;;;;5082887;28;20063;-76
2024/01/24 10:53:03;;;;;;;8.23;2.03;;;;;;;;;;5079549;28;20162;-76
2024/01/24 10:55:29;;;;;;;7.60;1.48;;;;;;;;;;5077021;28;20473;-75
2024/01/24 10:57:55;;;;;;;8.60;1.63;;;;;;;;;;5075948;28;20024;-76
2024/01/24 11:00:22;;;;;;;10.50;2.72;;;;;;;;;;5076825;28;20047;-76
2024/01/24 11:02:47;;;;;;;7.35;1.67;;;;;;;;;;5075771;28;20552;-75
2024/01/24 11:05:18;;;;;;;9.30;1.70;;;;;;;;;;5071421;28;20111;-75
2024/01/24 11:07:50;;;;;;;12.35;1.83;;;;;;;;;;5073324;28;20044;-75
2024/01/24 11:10:20;;;;;;;9.85;2.38;;;;;;;;;;5092256;28;20110;-75
2024/01/24 11:12:45;;;;;;;9.07;2.22;;;;;;;;;;5073962;28;20562;-76
2024/01/24 11:15:13;;;;;;;7.88;1.85;;;;;;;;;;5086215;28;20040;-76
2024/01/24 11:17:39;;;;;;;7.18;2.33;;;;;;;;;;5076839;28;20534;-76
2024/01/24 11:20:09;;;;;;;6.70;1.95;;;;;;;;;;5077596;28;20064;-76
2024/01/24 11:22:34;;;;;;;14.48;1.63;;;;;;;;;;5076542;28;20152;-76
2024/01/24 11:24:59;;;;;;;9.43;2.03;;;;;;;;;;5075868;28;20158;-76
2024/01/24 11:27:35;;;;;;;14.18;3.00;;;;;;;;;;5071937;28;20048;-76
2024/01/24 11:30:06;;;;;;;12.77;1.98;;;;;;;;;;5081186;28;20040;-76
2024/01/24 11:32:55;;;;;;;9.00;2.20;;;;;;;;;;5084618;28;20090;-77
2024/01/24 11:35:33;;;;;;;10.40;2.10;;;;;;;;;;5080727;28;20639;-77
2024/01/24 11:38:00;;;;;;;13.52;2.72;;;;;;;;;;5082222;28;20041;-77
2024/01/24 11:40:26;;;;;;;10.52;2.15;;;;;;;;;;5083744;28;20036;-77
2024/01/24 11:42:52;;;;;;;12.15;2.03;;;;;;;;;;5085922;28;20024;-77
2024/01/24 11:45:19;;;;;;;10.32;2.10;;;;;;;;;;5082052;28;20029;-78
2024/01/24 11:47:45;;;;;;;10.75;2.10;;;;;;;;;;5091292;28;20038;-78
2024/01/24 11:50:11;;;;;;;12.65;2.70;;;;;;;;;;5083112;28;20415;-79
2024/01/24 11:52:37;;;;;;;10.80;2.88;;;;;;;;;;5078794;28;20101;-80
2024/01/24 11:55:02;;;;;;;14.52;2.85;;;;;;;;;;5079315;28;20037;-81
2024/01/24 11:57:30;;;;;;;16.00;2.30;;;;;;;;;;5074044;28;20075;-80
2024/01/24 11:59:55;;;;;;;9.52;2.45;;;;;;;;;;5082407;28;20040;-80
2024/01/24 12:02:21;;;;;;;7.00;1.65;;;;;;;;;;5085145;28;20032;-80
2024/01/24 12:04:49;;;;;;;12.00;2.78;;;;;;;;;;5077206;28;20032;-80
2024/01/24 12:07:14;;;;;;;11.25;2.17;;;;;;;;;;5076083;28;21271;-81
2024/01/24 12:09:40;;;;;;;10.70;2.03;;;;;;;;;;5080218;28;20020;-80
2024/01/24 12:12:05;;;;;;;12.07;2.13;;;;;;;;;;5072591;28;20488;-79
2024/01/24 12:14:31;;;;;;;8.65;1.67;;;;;;;;;;5072176;28;20097;-79
2024/01/24 12:16:56;;;;;;;11.73;2.45;;;;;;;;;;5072552;28;20133;-81
2024/01/24 12:19:21;;;;;;;9.95;2.25;;;;;;;;;;5075900;28;20028;-80
2024/01/24 12:21:49;;;;;;;9.30;2.63;;;;;;;;;;5078482;28;20063;-80
2024/01/24 12:24:15;;;;;;;7.05;1.85;;;;;;;;;;5074251;28;20032;-80
2024/01/24 12:26:40;;;;;;;15.00;2.88;;;;;;;;;;5083096;28;20035;-79
2024/01/24 12:29:05;;;;;;;13.43;2.30;;;;;;;;;;5078958;28;20028;-80
2024/01/24 12:31:30;;;;;;;13.45;2.58;;;;;;;;;;5078962;28;20028;-80
2024/01/24 12:33:56;;;;;;;9.45;2.08;;;;;;;;;;5085904;28;20045;-81
2024/01/24 12:36:24;;;;;;;12.85;2.88;;;;;;;;;;5074305;28;20029;-80
2024/01/24 12:38:54;;;;;;;12.00;2.60;;;;;;;;;;5077981;28;20037;-79
2024/01/24 12:41:19;;;;;;;9.70;2.13;;;;;;;;;;5075810;28;20020;-80
2024/01/24 12:43:44;;;;;;;11.60;2.40;;;;;;;;;;5071209;28;20039;-80
2024/01/24 12:46:11;;;;;;;15.10;2.20;;;;;;;;;;5075893;28;20060;-80
2024/01/24 12:48:36;;;;;;;8.85;2.40;;;;;;;;;;5093579;28;20289;-80
2024/01/24 12:51:02;;;;;;;8.48;2.00;;;;;;;;;;5075265;28;20128;-80
2024/01/24 12:53:27;;;;;;;11.13;2.53;;;;;;;;;;5078856;28;20035;-80
2024/01/24 12:55:52;;;;;;;11.63;1.77;;;;;;;;;;5075890;28;20485;-79
2024/01/24 12:58:17;;;;;;;11.65;2.75;;;;;;;;;;5072932;28;20292;-80
2024/01/24 13:00:43;;;;;;;12.57;2.50;;;;;;;;;;5075383;28;20405;-80
2024/01/24 13:03:08;;;;;;;12.75;3.20;;;;;;;;;;5076680;28;20032;-80
2024/01/24 13:05:33;;;;;;;12.68;3.15;;;;;;;;;;5072142;28;20668;-79
2024/01/24 13:07:58;;;;;;;14.20;2.83;;;;;;;;;;5070642;28;20027;-80
2024/01/24 13:10:25;;;;;;;15.27;3.23;;;;;;;;;;5072714;28;20016;-80
2024/01/24 13:12:51;;;;;;;11.93;2.75;;;;;;;;;;5077670;28;20313;-79
2024/01/24 13:15:16;;;;;;;11.45;2.60;;;;;;;;;;5075122;28;20060;-80
2024/01/24 13:17:42;;;;;;;18.23;4.10;;;;;;;;;;5075239;28;20047;-79
2024/01/24 13:20:09;;;;;;;11.88;2.22;;;;;;;;;;5077754;28;20442;-80
2024/01/24 13:22:34;;;;;;;12.63;2.88;;;;;;;;;;5073264;28;20032;-79
2024/01/24 13:24:59;;;;;;;15.30;3.77;;;;;;;;;;5077860;28;20119;-81
2024/01/24 13:27:24;;;;;;;17.50;2.75;;;;;;;;;;5078709;28;20274;-80
2024/01/24 13:29:49;;;;;;;12.70;2.97;;;;;;;;;;5076510;28;20033;-80
2024/01/24 13:32:14;;;;;;;16.60;2.63;;;;;;;;;;5075338;28;20054;-82
2024/01/24 13:34:40;;;;;;;17.60;3.65;;;;;;;;;;5078497;28;20616;-81
2024/01/24 13:37:05;;;;;;;13.63;2.50;;;;;;;;;;5073497;28;20056;-82
2024/01/24 13:39:30;;;;;;;17.00;3.58;;;;;;;;;;5075205;28;20269;-81
2024/01/24 13:41:55;;;;;;;14.30;2.35;;;;;;;;;;5074629;28;20492;-82
2024/01/24 13:44:21;;;;;;;10.95;2.75;;;;;;;;;;5076749;28;20032;-82
2024/01/24 13:46:46;;;;;;;15.63;3.25;;;;;;;;;;5078038;28;20115;-82
2024/01/24 13:49:12;;;;;;;11.90;2.58;;;;;;;;;;5079288;28;20036;-82
2024/01/24 13:51:37;;;;;;;12.68;2.42;;;;;;;;;;5072382;28;20602;-82
2024/01/24 13:54:03;;;;;;;10.68;2.50;;;;;;;;;;5073960;28;20025;-82
2024/01/24 13:56:28;;;;;;;13.32;2.95;;;;;;;;;;5075628;28;20029;-82
2024/01/24 13:58:53;;;;;;;14.35;3.10;;;;;;;;;;5075673;28;20111;-81
2024/01/24 14:01:18;;;;;;;16.80;3.05;;;;;;;;;;5079773;28;20481;-82
2024/01/24 14:03:44;;;;;;;12.77;2.45;;;;;;;;;;5087130;28;20054;-82
2024/01/24 14:06:09;;;;;;;13.55;2.85;;;;;;;;;;5083862;28;20084;-82
2024/01/24 14:08:37;;;;;;;15.13;2.50;;;;;;;;;;5075664;28;20025;-82
2024/01/24 14:11:03;;;;;;;8.40;2.42;;;;;;;;;;5077066;28;20775;-82
2024/01/24 14:13:28;;;;;;;16.70;3.65;;;;;;;;;;5075251;28;20044;-82
2024/01/24 14:15:54;;;;;;;10.27;2.80;;;;;;;;;;5083730;28;20477;-81
2024/01/24 14:18:19;;;;;;;12.75;2.92;;;;;;;;;;5082494;28;20024;-81
2024/01/24 14:20:44;;;;;;;18.08;3.00;;;;;;;;;;5085512;28;20037;-82
2024/01/24 14:23:10;;;;;;;12.13;2.97;;;;;;;;;;5087393;28;20037;-82
2024/01/24 14:25:35;;;;;;;13.85;2.90;;;;;;;;;;5088004;28;20278;-82
2024/01/24 14:28:00;;;;;;;13.27;2.85;;;;;;;;;;5076298;28;20052;-81
2024/01/24 14:30:25;;;;;;;14.68;3.22;;;;;;;;;;5082352;28;20028;-81